sensor_id;sensor_type;location;lat;lon;timestamp;P1;durP1;ratioP1;P2;durP2;ratioP2
12966;SDS011;6548;49.996;8.238;2024-03-02T06:16:41;14.95;;;8.85;;
12966;SDS011;6548;49.996;8.238;2024-03-02T06:19:06;15.20;;;8.70;;
12966;SDS011;6548;49.996;8.238;2024-03-02T06:21:32;15.23;;;9.18;;
12966;SDS011;6548;49.996;8.238;2024-03-02T06:23:58;15.50;;;8.57;;
12966;SDS011;6548;49.996;8.238;2024-03-02T06:26:23;14.45;;;8.63;;
12966;SDS011;6548;49.996;8.238;2024-03-02T06:28:49;14.32;;;8.43;;
12966;SDS011;6548;49.996;8.238;2024-03-02T06:31:14;14.77;;;9.70;;
12966;SDS011;6548;49.996;8.238;2024-03-02T06:33:40;14.63;;;8.88;;
12966;SDS011;6548;49.996;8.238;2024-03-02T06:36:06;17.95;;;9.57;;
12966;SDS011;6548;49.996;8.238;2024-03-02T06:38:36;14.43;;;8.63;;
12966;SDS011;6548;49.996;8.238;2024-03-02T06:41:02;12.48;;;8.40;;
12966;SDS011;6548;49.996;8.238;2024-03-02T06:43:28;18.13;;;9.95;;
12966;SDS011;6548;49.996;8.238;2024-03-02T06:45:53;15.05;;;8.80;;
12966;SDS011;6548;49.996;8.238;2024-03-02T06:48:19;14.68;;;9.23;;
12966;SDS011;6548;49.996;8.238;2024-03-02T06:50:49;16.27;;;9.23;;
12966;SDS011;6548;49.996;8.238;2024-03-02T06:53:15;17.90;;;9.55;;
12966;SDS011;6548;49.996;8.238;2024-03-02T06:55:44;16.02;;;9.40;;
12966;SDS011;6548;49.996;8.238;2024-03-02T06:58:13;14.68;;;9.20;;
12966;SDS011;6548;49.996;8.238;2024-03-02T07:00:42;19.63;;;11.68;;
12966;SDS011;6548;49.996;8.238;2024-03-02T07:03:09;18.88;;;11.05;;
12966;SDS011;6548;49.996;8.238;2024-03-02T07:05:34;22.27;;;12.02;;
12966;SDS011;6548;49.996;8.238;2024-03-02T07:08:00;18.60;;;10.60;;
12966;SDS011;6548;49.996;8.238;2024-03-02T07:10:26;18.95;;;11.25;;
12966;SDS011;6548;49.996;8.238;2024-03-02T07:12:52;17.25;;;9.95;;
12966;SDS011;6548;49.996;8.238;2024-03-02T07:15:17;17.45;;;9.48;;
12966;SDS011;6548;49.996;8.238;2024-03-02T07:17:52;17.10;;;9.90;;
12966;SDS011;6548;49.996;8.238;2024-03-02T07:20:18;16.92;;;11.50;;
12966;SDS011;6548;49.996;8.238;2024-03-02T07:22:44;14.32;;;10.35;;
12966;SDS011;6548;49.996;8.238;2024-03-02T07:25:09;20.60;;;10.35;;
12966;SDS011;6548;49.996;8.238;2024-03-02T07:27:35;22.33;;;13.27;;
12966;SDS011;6548;49.996;8.238;2024-03-02T07:30:01;21.10;;;12.38;;
12966;SDS011;6548;49.996;8.238;2024-03-02T07:32:28;21.55;;;13.80;;
12966;SDS011;6548;49.996;8.238;2024-03-02T07:34:53;23.25;;;13.77;;
12966;SDS011;6548;49.996;8.238;2024-03-02T07:37:19;19.88;;;12.18;;
12966;SDS011;6548;49.996;8.238;2024-03-02T07:39:45;19.85;;;12.68;;
12966;SDS011;6548;49.996;8.238;2024-03-02T07:42:10;21.67;;;13.30;;
12966;SDS011;6548;49.996;8.238;2024-03-02T07:44:36;18.10;;;11.18;;
12966;SDS011;6548;49.996;8.238;2024-03-02T07:47:02;21.05;;;11.82;;
12966;SDS011;6548;49.996;8.238;2024-03-02T07:49:28;20.73;;;11.95;;
12966;SDS011;6548;49.996;8.238;2024-03-02T07:51:53;20.70;;;12.88;;
12966;SDS011;6548;49.996;8.238;2024-03-02T07:54:19;17.52;;;12.05;;
12966;SDS011;6548;49.996;8.238;2024-03-02T07:56:44;19.00;;;12.98;;
12966;SDS011;6548;49.996;8.238;2024-03-02T07:59:10;21.13;;;13.25;;
12966;SDS011;6548;49.996;8.238;2024-03-02T08:01:35;19.52;;;12.63;;
12966;SDS011;6548;49.996;8.238;2024-03-02T08:04:01;21.75;;;12.15;;
12966;SDS011;6548;49.996;8.238;2024-03-02T08:06:30;20.60;;;12.38;;
12966;SDS011;6548;49.996;8.238;2024-03-02T08:08:56;21.15;;;14.02;;
12966;SDS011;6548;49.996;8.238;2024-03-02T08:11:22;20.85;;;11.63;;
12966;SDS011;6548;49.996;8.238;2024-03-02T08:13:48;23.05;;;13.48;;
12966;SDS011;6548;49.996;8.238;2024-03-02T08:16:14;21.88;;;12.02;;
12966;SDS011;6548;49.996;8.238;2024-03-02T08:18:41;19.65;;;12.85;;
12966;SDS011;6548;49.996;8.238;2024-03-02T08:21:07;20.02;;;12.13;;
12966;SDS011;6548;49.996;8.238;2024-03-02T08:23:33;21.73;;;12.23;;
12966;SDS011;6548;49.996;8.238;2024-03-02T08:25:59;23.65;;;13.77;;
12966;SDS011;6548;49.996;8.238;2024-03-02T08:28:24;29.40;;;14.27;;
12966;SDS011;6548;49.996;8.238;2024-03-02T08:30:50;22.17;;;12.52;;
12966;SDS011;6548;49.996;8.238;2024-03-02T08:33:16;20.73;;;11.98;;
12966;SDS011;6548;49.996;8.238;2024-03-02T08:35:41;22.70;;;13.07;;
12966;SDS011;6548;49.996;8.238;2024-03-02T08:38:07;23.80;;;12.88;;
12966;SDS011;6548;49.996;8.238;2024-03-02T08:40:32;21.55;;;11.77;;
12966;SDS011;6548;49.996;8.238;2024-03-02T08:42:58;17.35;;;11.18;;
12966;SDS011;6548;49.996;8.238;2024-03-02T08:45:23;16.20;;;10.20;;
12966;SDS011;6548;49.996;8.238;2024-03-02T08:47:49;19.17;;;10.88;;
12966;SDS011;6548;49.996;8.238;2024-03-02T08:50:14;20.08;;;11.70;;
12966;SDS011;6548;49.996;8.238;2024-03-02T08:52:40;17.45;;;11.27;;
12966;SDS011;6548;49.996;8.238;2024-03-02T08:55:06;19.45;;;10.75;;
12966;SDS011;6548;49.996;8.238;2024-03-02T08:57:32;17.98;;;10.38;;
12966;SDS011;6548;49.996;8.238;2024-03-02T08:59:58;18.10;;;9.80;;
12966;SDS011;6548;49.996;8.238;2024-03-02T09:02:24;17.95;;;11.07;;
12966;SDS011;6548;49.996;8.238;2024-03-02T09:04:49;15.63;;;11.15;;
12966;SDS011;6548;49.996;8.238;2024-03-02T09:07:15;16.60;;;10.15;;
12966;SDS011;6548;49.996;8.238;2024-03-02T09:09:41;15.50;;;10.18;;
12966;SDS011;6548;49.996;8.238;2024-03-02T09:12:06;18.77;;;11.05;;
12966;SDS011;6548;49.996;8.238;2024-03-02T09:14:32;18.30;;;11.43;;
12966;SDS011;6548;49.996;8.238;2024-03-02T09:16:58;17.13;;;10.45;;
12966;SDS011;6548;49.996;8.238;2024-03-02T09:19:24;17.17;;;10.77;;
12966;SDS011;6548;49.996;8.238;2024-03-02T09:21:49;17.95;;;11.40;;
12966;SDS011;6548;49.996;8.238;2024-03-02T09:24:15;17.48;;;10.80;;
12966;SDS011;6548;49.996;8.238;2024-03-02T09:26:41;16.70;;;10.38;;
12966;SDS011;6548;49.996;8.238;2024-03-02T09:29:06;16.17;;;10.75;;
12966;SDS011;6548;49.996;8.238;2024-03-02T09:31:32;18.75;;;10.93;;
12966;SDS011;6548;49.996;8.238;2024-03-02T09:33:57;15.95;;;10.60;;
12966;SDS011;6548;49.996;8.238;2024-03-02T09:36:23;17.60;;;11.02;;
12966;SDS011;6548;49.996;8.238;2024-03-02T09:38:49;18.90;;;11.00;;
12966;SDS011;6548;49.996;8.238;2024-03-02T09:41:14;17.95;;;10.05;;
12966;SDS011;6548;49.996;8.238;2024-03-02T09:43:40;15.80;;;10.15;;
12966;SDS011;6548;49.996;8.238;2024-03-02T09:46:09;18.67;;;9.98;;
12966;SDS011;6548;49.996;8.238;2024-03-02T09:48:35;15.07;;;9.95;;
12966;SDS011;6548;49.996;8.238;2024-03-02T09:51:01;14.82;;;9.10;;
12966;SDS011;6548;49.996;8.238;2024-03-02T09:53:34;13.02;;;9.35;;
12966;SDS011;6548;49.996;8.238;2024-03-02T09:55:59;14.93;;;9.68;;
12966;SDS011;6548;49.996;8.238;2024-03-02T09:58:25;15.20;;;9.48;;
12966;SDS011;6548;49.996;8.238;2024-03-02T10:00:51;16.33;;;9.80;;
12966;SDS011;6548;49.996;8.238;2024-03-02T10:03:18;16.42;;;9.57;;
12966;SDS011;6548;49.996;8.238;2024-03-02T10:05:44;16.10;;;9.57;;
12966;SDS011;6548;49.996;8.238;2024-03-02T10:08:10;17.90;;;10.48;;
12966;SDS011;6548;49.996;8.238;2024-03-02T10:13:05;15.15;;;8.40;;
12966;SDS011;6548;49.996;8.238;2024-03-02T10:15:31;14.48;;;9.95;;
12966;SDS011;6548;49.996;8.238;2024-03-02T10:17:57;13.68;;;9.55;;
12966;SDS011;6548;49.996;8.238;2024-03-02T10:20:23;18.50;;;10.70;;
12966;SDS011;6548;49.996;8.238;2024-03-02T10:22:50;16.00;;;9.63;;
12966;SDS011;6548;49.996;8.238;2024-03-02T10:25:31;16.17;;;9.52;;
12966;SDS011;6548;49.996;8.238;2024-03-02T10:28:01;15.18;;;9.40;;
12966;SDS011;6548;49.996;8.238;2024-03-02T10:30:26;15.05;;;10.13;;
12966;SDS011;6548;49.996;8.238;2024-03-02T10:32:53;14.02;;;9.00;;
12966;SDS011;6548;49.996;8.238;2024-03-02T10:35:20;12.52;;;8.57;;
12966;SDS011;6548;49.996;8.238;2024-03-02T10:37:47;14.00;;;8.80;;
12966;SDS011;6548;49.996;8.238;2024-03-02T10:40:13;14.02;;;8.45;;
12966;SDS011;6548;49.996;8.238;2024-03-02T10:42:39;11.07;;;7.93;;
12966;SDS011;6548;49.996;8.238;2024-03-02T10:45:07;15.38;;;9.07;;
12966;SDS011;6548;49.996;8.238;2024-03-02T10:47:37;15.00;;;9.00;;
12966;SDS011;6548;49.996;8.238;2024-03-02T10:50:06;13.88;;;9.93;;
12966;SDS011;6548;49.996;8.238;2024-03-02T10:52:35;13.68;;;9.40;;
12966;SDS011;6548;49.996;8.238;2024-03-02T10:55:01;11.98;;;8.52;;
12966;SDS011;6548;49.996;8.238;2024-03-02T10:57:31;15.02;;;8.75;;
12966;SDS011;6548;49.996;8.238;2024-03-02T11:00:05;15.80;;;8.82;;
12966;SDS011;6548;49.996;8.238;2024-03-02T11:02:32;13.32;;;8.27;;
12966;SDS011;6548;49.996;8.238;2024-03-02T11:05:02;14.70;;;8.35;;
12966;SDS011;6548;49.996;8.238;2024-03-02T11:07:32;14.30;;;8.05;;
12966;SDS011;6548;49.996;8.238;2024-03-02T11:10:01;11.95;;;7.82;;
12966;SDS011;6548;49.996;8.238;2024-03-02T11:12:35;11.68;;;8.48;;
12966;SDS011;6548;49.996;8.238;2024-03-02T11:15:10;12.18;;;7.10;;
12966;SDS011;6548;49.996;8.238;2024-03-02T11:17:36;11.50;;;8.00;;
12966;SDS011;6548;49.996;8.238;2024-03-02T11:20:05;11.93;;;7.32;;
12966;SDS011;6548;49.996;8.238;2024-03-02T11:22:34;11.60;;;7.13;;
12966;SDS011;6548;49.996;8.238;2024-03-02T11:25:01;13.80;;;8.30;;
12966;SDS011;6548;49.996;8.238;2024-03-02T11:30:56;10.63;;;7.95;;
12966;SDS011;6548;49.996;8.238;2024-03-02T11:32:56;20.15;;;12.73;;
12966;SDS011;6548;49.996;8.238;2024-03-02T11:35:23;11.23;;;8.90;;
12966;SDS011;6548;49.996;8.238;2024-03-02T11:37:55;15.23;;;7.55;;
12966;SDS011;6548;49.996;8.238;2024-03-02T11:40:26;9.85;;;7.68;;
12966;SDS011;6548;49.996;8.238;2024-03-02T11:42:53;10.38;;;6.35;;
12966;SDS011;6548;49.996;8.238;2024-03-02T11:45:25;11.02;;;7.75;;
12966;SDS011;6548;49.996;8.238;2024-03-02T11:47:52;11.35;;;7.90;;
12966;SDS011;6548;49.996;8.238;2024-03-02T11:50:29;9.27;;;6.10;;
12966;SDS011;6548;49.996;8.238;2024-03-02T11:53:10;8.02;;;5.93;;
12966;SDS011;6548;49.996;8.238;2024-03-02T11:55:37;12.13;;;7.57;;
12966;SDS011;6548;49.996;8.238;2024-03-02T11:58:04;12.77;;;6.88;;
12966;SDS011;6548;49.996;8.238;2024-03-02T12:00:30;9.48;;;6.63;;
12966;SDS011;6548;49.996;8.238;2024-03-02T12:03:14;10.05;;;7.15;;
12966;SDS011;6548;49.996;8.238;2024-03-02T12:05:40;12.63;;;6.55;;
12966;SDS011;6548;49.996;8.238;2024-03-02T12:08:07;7.82;;;5.65;;
12966;SDS011;6548;49.996;8.238;2024-03-02T12:10:33;7.20;;;5.25;;
12966;SDS011;6548;49.996;8.238;2024-03-02T12:13:04;7.45;;;5.15;;
12966;SDS011;6548;49.996;8.238;2024-03-02T12:15:37;8.27;;;5.15;;
12966;SDS011;6548;49.996;8.238;2024-03-02T12:18:03;11.48;;;6.13;;
12966;SDS011;6548;49.996;8.238;2024-03-02T12:20:30;8.43;;;5.50;;
12966;SDS011;6548;49.996;8.238;2024-03-02T12:23:00;12.68;;;6.80;;
12966;SDS011;6548;49.996;8.238;2024-03-02T12:25:27;8.15;;;6.10;;
12966;SDS011;6548;49.996;8.238;2024-03-02T12:27:55;7.45;;;5.78;;
12966;SDS011;6548;49.996;8.238;2024-03-02T12:30:22;10.25;;;7.47;;
12966;SDS011;6548;49.996;8.238;2024-03-02T12:32:48;7.60;;;5.55;;
12966;SDS011;6548;49.996;8.238;2024-03-02T12:35:14;9.07;;;6.15;;
12966;SDS011;6548;49.996;8.238;2024-03-02T12:37:50;9.15;;;6.18;;
12966;SDS011;6548;49.996;8.238;2024-03-02T12:40:17;7.90;;;5.50;;
12966;SDS011;6548;49.996;8.238;2024-03-02T12:42:44;8.10;;;6.45;;
12966;SDS011;6548;49.996;8.238;2024-03-02T12:45:10;7.03;;;5.43;;
12966;SDS011;6548;49.996;8.238;2024-03-02T12:47:36;9.70;;;5.70;;
12966;SDS011;6548;49.996;8.238;2024-03-02T12:50:03;10.43;;;6.55;;
12966;SDS011;6548;49.996;8.238;2024-03-02T12:52:29;9.35;;;6.75;;
12966;SDS011;6548;49.996;8.238;2024-03-02T12:54:55;10.30;;;6.47;;
12966;SDS011;6548;49.996;8.238;2024-03-02T12:57:30;9.27;;;5.85;;
12966;SDS011;6548;49.996;8.238;2024-03-02T13:00:00;10.48;;;6.63;;
12966;SDS011;6548;49.996;8.238;2024-03-02T13:02:33;10.55;;;6.05;;
12966;SDS011;6548;49.996;8.238;2024-03-02T13:05:00;8.63;;;6.35;;
12966;SDS011;6548;49.996;8.238;2024-03-02T13:07:26;8.02;;;6.20;;
12966;SDS011;6548;49.996;8.238;2024-03-02T13:09:52;6.65;;;5.63;;
12966;SDS011;6548;49.996;8.238;2024-03-02T13:12:20;11.43;;;6.13;;
12966;SDS011;6548;49.996;8.238;2024-03-02T13:14:52;10.65;;;8.48;;
12966;SDS011;6548;49.996;8.238;2024-03-02T13:17:18;7.28;;;5.95;;
12966;SDS011;6548;49.996;8.238;2024-03-02T13:22:20;8.32;;;5.95;;
12966;SDS011;6548;49.996;8.238;2024-03-02T13:24:46;7.20;;;4.50;;
12966;SDS011;6548;49.996;8.238;2024-03-02T13:27:12;7.32;;;4.70;;
12966;SDS011;6548;49.996;8.238;2024-03-02T13:29:38;5.10;;;3.83;;
12966;SDS011;6548;49.996;8.238;2024-03-02T13:32:04;6.32;;;4.05;;
12966;SDS011;6548;49.996;8.238;2024-03-02T13:34:29;5.32;;;3.60;;
12966;SDS011;6548;49.996;8.238;2024-03-02T13:36:55;6.32;;;4.78;;
12966;SDS011;6548;49.996;8.238;2024-03-02T13:39:20;5.22;;;3.28;;
12966;SDS011;6548;49.996;8.238;2024-03-02T13:41:46;4.75;;;4.20;;
12966;SDS011;6548;49.996;8.238;2024-03-02T13:44:17;6.93;;;3.88;;
12966;SDS011;6548;49.996;8.238;2024-03-02T13:46:46;4.07;;;3.10;;
12966;SDS011;6548;49.996;8.238;2024-03-02T13:49:13;5.85;;;3.40;;
12966;SDS011;6548;49.996;8.238;2024-03-02T13:51:39;4.38;;;3.40;;
12966;SDS011;6548;49.996;8.238;2024-03-02T13:54:04;4.47;;;3.00;;
12966;SDS011;6548;49.996;8.238;2024-03-02T13:56:30;3.70;;;3.20;;
12966;SDS011;6548;49.996;8.238;2024-03-02T13:58:57;5.82;;;2.90;;
12966;SDS011;6548;49.996;8.238;2024-03-02T14:01:23;4.38;;;3.30;;
12966;SDS011;6548;49.996;8.238;2024-03-02T14:03:49;4.55;;;3.47;;
12966;SDS011;6548;49.996;8.238;2024-03-02T14:06:14;4.07;;;3.42;;
12966;SDS011;6548;49.996;8.238;2024-03-02T14:08:40;4.57;;;3.25;;
12966;SDS011;6548;49.996;8.238;2024-03-02T14:11:09;4.53;;;3.03;;
12966;SDS011;6548;49.996;8.238;2024-03-02T14:13:39;4.88;;;3.58;;
12966;SDS011;6548;49.996;8.238;2024-03-02T14:16:06;3.75;;;3.28;;
12966;SDS011;6548;49.996;8.238;2024-03-02T14:18:31;5.55;;;2.80;;
12966;SDS011;6548;49.996;8.238;2024-03-02T14:20:57;4.68;;;2.80;;
12966;SDS011;6548;49.996;8.238;2024-03-02T14:23:22;3.53;;;2.75;;
12966;SDS011;6548;49.996;8.238;2024-03-02T14:25:48;3.15;;;2.63;;
12966;SDS011;6548;49.996;8.238;2024-03-02T14:28:14;3.30;;;2.78;;
12966;SDS011;6548;49.996;8.238;2024-03-02T14:30:41;4.03;;;2.42;;
12966;SDS011;6548;49.996;8.238;2024-03-02T14:33:07;3.40;;;2.33;;
12966;SDS011;6548;49.996;8.238;2024-03-02T14:35:32;4.18;;;2.50;;
12966;SDS011;6548;49.996;8.238;2024-03-02T14:37:58;4.13;;;2.40;;
12966;SDS011;6548;49.996;8.238;2024-03-02T14:40:24;3.47;;;2.50;;
12966;SDS011;6548;49.996;8.238;2024-03-02T14:42:52;3.20;;;2.20;;
12966;SDS011;6548;49.996;8.238;2024-03-02T14:45:18;3.28;;;2.13;;
12966;SDS011;6548;49.996;8.238;2024-03-02T14:47:43;4.97;;;2.33;;
12966;SDS011;6548;49.996;8.238;2024-03-02T14:50:09;4.95;;;2.78;;
12966;SDS011;6548;49.996;8.238;2024-03-02T14:52:35;3.88;;;2.78;;
12966;SDS011;6548;49.996;8.238;2024-03-02T14:55:00;5.07;;;3.00;;
12966;SDS011;6548;49.996;8.238;2024-03-02T14:57:27;3.92;;;2.95;;
12966;SDS011;6548;49.996;8.238;2024-03-02T14:59:53;5.03;;;3.38;;
12966;SDS011;6548;49.996;8.238;2024-03-02T15:02:19;5.40;;;2.70;;
12966;SDS011;6548;49.996;8.238;2024-03-02T15:04:45;4.20;;;2.88;;
12966;SDS011;6548;49.996;8.238;2024-03-02T15:07:12;2.53;;;1.98;;
12966;SDS011;6548;49.996;8.238;2024-03-02T15:09:38;3.38;;;2.47;;
12966;SDS011;6548;49.996;8.238;2024-03-02T15:12:04;3.92;;;2.00;;
12966;SDS011;6548;49.996;8.238;2024-03-02T15:14:30;2.13;;;1.52;;
12966;SDS011;6548;49.996;8.238;2024-03-02T15:16:57;2.63;;;1.65;;
12966;SDS011;6548;49.996;8.238;2024-03-02T15:19:22;1.75;;;1.42;;
12966;SDS011;6548;49.996;8.238;2024-03-02T15:21:48;1.85;;;1.65;;
12966;SDS011;6548;49.996;8.238;2024-03-02T15:24:13;2.40;;;1.80;;
12966;SDS011;6548;49.996;8.238;2024-03-02T15:26:39;2.78;;;2.20;;
12966;SDS011;6548;49.996;8.238;2024-03-02T15:29:04;3.92;;;2.80;;
12966;SDS011;6548;49.996;8.238;2024-03-02T15:31:30;4.45;;;3.17;;
12966;SDS011;6548;49.996;8.238;2024-03-02T15:33:55;4.13;;;2.38;;
12966;SDS011;6548;49.996;8.238;2024-03-02T15:36:22;3.50;;;2.80;;
12966;SDS011;6548;49.996;8.238;2024-03-02T15:38:47;3.67;;;2.30;;
12966;SDS011;6548;49.996;8.238;2024-03-02T15:41:13;3.63;;;2.50;;
12966;SDS011;6548;49.996;8.238;2024-03-02T15:43:38;8.77;;;2.30;;
12966;SDS011;6548;49.996;8.238;2024-03-02T15:46:06;6.70;;;3.13;;
12966;SDS011;6548;49.996;8.238;2024-03-02T15:48:31;4.65;;;3.08;;
12966;SDS011;6548;49.996;8.238;2024-03-02T15:50:57;7.53;;;3.17;;
12966;SDS011;6548;49.996;8.238;2024-03-02T15:53:23;7.32;;;3.92;;
12966;SDS011;6548;49.996;8.238;2024-03-02T15:55:49;9.10;;;3.55;;
12966;SDS011;6548;49.996;8.238;2024-03-02T15:58:15;4.15;;;3.20;;
12966;SDS011;6548;49.996;8.238;2024-03-02T16:00:40;4.65;;;3.08;;
12966;SDS011;6548;49.996;8.238;2024-03-02T16:03:06;6.57;;;4.07;;
12966;SDS011;6548;49.996;8.238;2024-03-02T16:05:31;5.30;;;4.10;;
12966;SDS011;6548;49.996;8.238;2024-03-02T16:07:57;4.13;;;3.10;;
12966;SDS011;6548;49.996;8.238;2024-03-02T16:10:22;6.50;;;3.90;;
12966;SDS011;6548;49.996;8.238;2024-03-02T16:12:49;5.07;;;3.22;;
12966;SDS011;6548;49.996;8.238;2024-03-02T16:15:15;6.15;;;3.28;;
12966;SDS011;6548;49.996;8.238;2024-03-02T16:17:40;4.93;;;3.47;;
12966;SDS011;6548;49.996;8.238;2024-03-02T16:20:06;6.60;;;2.97;;
12966;SDS011;6548;49.996;8.238;2024-03-02T16:22:33;5.50;;;3.40;;
12966;SDS011;6548;49.996;8.238;2024-03-02T16:24:59;5.93;;;3.63;;
12966;SDS011;6548;49.996;8.238;2024-03-02T16:27:24;4.18;;;3.60;;
12966;SDS011;6548;49.996;8.238;2024-03-02T16:29:50;4.05;;;3.03;;
12966;SDS011;6548;49.996;8.238;2024-03-02T16:32:15;6.00;;;3.80;;
12966;SDS011;6548;49.996;8.238;2024-03-02T16:34:42;5.35;;;3.58;;
12966;SDS011;6548;49.996;8.238;2024-03-02T16:37:07;5.55;;;3.63;;
12966;SDS011;6548;49.996;8.238;2024-03-02T16:39:33;6.97;;;3.50;;
12966;SDS011;6548;49.996;8.238;2024-03-02T16:41:58;8.23;;;3.80;;
12966;SDS011;6548;49.996;8.238;2024-03-02T16:44:24;5.60;;;3.85;;
12966;SDS011;6548;49.996;8.238;2024-03-02T16:46:49;6.00;;;3.88;;
12966;SDS011;6548;49.996;8.238;2024-03-02T16:49:15;5.22;;;3.47;;
12966;SDS011;6548;49.996;8.238;2024-03-02T16:51:43;5.50;;;3.60;;
12966;SDS011;6548;49.996;8.238;2024-03-02T16:54:11;6.93;;;3.53;;
12966;SDS011;6548;49.996;8.238;2024-03-02T16:56:37;5.93;;;3.70;;
12966;SDS011;6548;49.996;8.238;2024-03-02T16:59:12;7.72;;;4.78;;
12966;SDS011;6548;49.996;8.238;2024-03-02T17:01:37;5.78;;;4.03;;
12966;SDS011;6548;49.996;8.238;2024-03-02T17:04:03;7.90;;;4.40;;
12966;SDS011;6548;49.996;8.238;2024-03-02T17:06:30;5.55;;;3.67;;
12966;SDS011;6548;49.996;8.238;2024-03-02T17:08:56;8.10;;;4.35;;
12966;SDS011;6548;49.996;8.238;2024-03-02T17:11:22;6.03;;;3.95;;
12966;SDS011;6548;49.996;8.238;2024-03-02T17:13:47;8.23;;;4.95;;
12966;SDS011;6548;49.996;8.238;2024-03-02T17:16:13;6.03;;;4.00;;
12966;SDS011;6548;49.996;8.238;2024-03-02T17:18:42;6.35;;;4.00;;
12966;SDS011;6548;49.996;8.238;2024-03-02T17:21:08;7.22;;;4.15;;
12966;SDS011;6548;49.996;8.238;2024-03-02T17:23:33;6.80;;;4.65;;
12966;SDS011;6548;49.996;8.238;2024-03-02T17:25:59;6.65;;;4.30;;
12966;SDS011;6548;49.996;8.238;2024-03-02T17:28:25;10.15;;;5.65;;
12966;SDS011;6548;49.996;8.238;2024-03-02T17:30:54;7.43;;;5.40;;
12966;SDS011;6548;49.996;8.238;2024-03-02T17:33:20;8.48;;;4.82;;
12966;SDS011;6548;49.996;8.238;2024-03-02T17:35:46;9.15;;;4.80;;
12966;SDS011;6548;49.996;8.238;2024-03-02T17:38:15;9.55;;;4.97;;
12966;SDS011;6548;49.996;8.238;2024-03-02T17:40:41;8.13;;;5.80;;
12966;SDS011;6548;49.996;8.238;2024-03-02T21:34:08;10.20;;;6.57;;
12966;SDS011;6548;49.996;8.238;2024-03-02T21:36:35;11.80;;;6.20;;
12966;SDS011;6548;49.996;8.238;2024-03-02T21:39:01;13.98;;;8.00;;
12966;SDS011;6548;49.996;8.238;2024-03-02T21:41:33;13.02;;;7.65;;
12966;SDS011;6548;49.996;8.238;2024-03-02T21:43:59;13.32;;;8.15;;
12966;SDS011;6548;49.996;8.238;2024-03-02T21:46:25;15.80;;;7.57;;
12966;SDS011;6548;49.996;8.238;2024-03-02T21:49:00;11.93;;;7.60;;
12966;SDS011;6548;49.996;8.238;2024-03-02T21:51:32;15.38;;;8.15;;
12966;SDS011;6548;49.996;8.238;2024-03-02T21:54:04;13.30;;;8.23;;
12966;SDS011;6548;49.996;8.238;2024-03-02T21:56:30;14.57;;;7.75;;
12966;SDS011;6548;49.996;8.238;2024-03-02T21:58:56;14.07;;;8.65;;
12966;SDS011;6548;49.996;8.238;2024-03-02T22:01:33;14.48;;;8.80;;
12966;SDS011;6548;49.996;8.238;2024-03-02T22:04:01;15.25;;;9.05;;
12966;SDS011;6548;49.996;8.238;2024-03-02T22:06:34;15.27;;;8.82;;
12966;SDS011;6548;49.996;8.238;2024-03-02T22:09:37;26.30;;;14.77;;
12966;SDS011;6548;49.996;8.238;2024-03-02T22:12:03;23.98;;;14.70;;
12966;SDS011;6548;49.996;8.238;2024-03-02T22:14:28;19.40;;;11.15;;
12966;SDS011;6548;49.996;8.238;2024-03-02T22:17:00;17.45;;;10.35;;
12966;SDS011;6548;49.996;8.238;2024-03-02T22:19:34;16.92;;;10.35;;
12966;SDS011;6548;49.996;8.238;2024-03-02T22:22:00;14.68;;;10.23;;
12966;SDS011;6548;49.996;8.238;2024-03-02T22:24:28;18.02;;;10.27;;
12966;SDS011;6548;49.996;8.238;2024-03-02T22:27:04;16.58;;;10.05;;
12966;SDS011;6548;49.996;8.238;2024-03-02T22:29:30;19.08;;;10.68;;
12966;SDS011;6548;49.996;8.238;2024-03-02T22:32:02;16.90;;;10.60;;
12966;SDS011;6548;49.996;8.238;2024-03-02T22:34:28;15.95;;;9.07;;
12966;SDS011;6548;49.996;8.238;2024-03-02T22:36:53;15.35;;;9.05;;
12966;SDS011;6548;49.996;8.238;2024-03-02T22:39:22;16.35;;;9.75;;
12966;SDS011;6548;49.996;8.238;2024-03-02T22:41:48;18.35;;;9.98;;
12966;SDS011;6548;49.996;8.238;2024-03-02T22:44:16;14.38;;;9.25;;
12966;SDS011;6548;49.996;8.238;2024-03-02T22:46:42;14.65;;;8.27;;
12966;SDS011;6548;49.996;8.238;2024-03-02T22:49:07;16.60;;;8.90;;
12966;SDS011;6548;49.996;8.238;2024-03-02T22:51:33;14.35;;;8.45;;
12966;SDS011;6548;49.996;8.238;2024-03-02T22:53:58;17.92;;;8.80;;
12966;SDS011;6548;49.996;8.238;2024-03-02T22:56:24;15.05;;;9.57;;
12966;SDS011;6548;49.996;8.238;2024-03-02T22:58:53;14.75;;;9.57;;
12966;SDS011;6548;49.996;8.238;2024-03-02T23:01:19;16.27;;;9.45;;
12966;SDS011;6548;49.996;8.238;2024-03-02T23:03:46;16.05;;;9.52;;
12966;SDS011;6548;49.996;8.238;2024-03-02T23:06:12;16.35;;;9.85;;
12966;SDS011;6548;49.996;8.238;2024-03-02T23:08:38;15.07;;;9.10;;
12966;SDS011;6548;49.996;8.238;2024-03-02T23:11:03;16.75;;;9.80;;
12966;SDS011;6548;49.996;8.238;2024-03-02T23:13:30;16.83;;;9.93;;
12966;SDS011;6548;49.996;8.238;2024-03-02T23:15:56;18.90;;;10.35;;
12966;SDS011;6548;49.996;8.238;2024-03-02T23:18:27;16.80;;;9.55;;
12966;SDS011;6548;49.996;8.238;2024-03-02T23:20:53;18.05;;;9.95;;
12966;SDS011;6548;49.996;8.238;2024-03-02T23:23:27;18.92;;;10.50;;
12966;SDS011;6548;49.996;8.238;2024-03-02T23:25:52;16.58;;;9.55;;
12966;SDS011;6548;49.996;8.238;2024-03-02T23:28:18;18.23;;;9.65;;
12966;SDS011;6548;49.996;8.238;2024-03-02T23:30:44;19.35;;;9.98;;
12966;SDS011;6548;49.996;8.238;2024-03-02T23:36:27;18.45;;;10.52;;
12966;SDS011;6548;49.996;8.238;2024-03-02T23:38:53;18.52;;;10.73;;
12966;SDS011;6548;49.996;8.238;2024-03-02T23:41:32;18.20;;;10.38;;
12966;SDS011;6548;49.996;8.238;2024-03-02T23:43:58;20.58;;;10.65;;
12966;SDS011;6548;49.996;8.238;2024-03-02T23:46:26;21.77;;;11.80;;
12966;SDS011;6548;49.996;8.238;2024-03-02T23:48:54;18.20;;;10.45;;
12966;SDS011;6548;49.996;8.238;2024-03-02T23:51:19;19.90;;;10.13;;
12966;SDS011;6548;49.996;8.238;2024-03-02T23:53:45;19.00;;;9.95;;
12966;SDS011;6548;49.996;8.238;2024-03-02T23:56:11;18.88;;;10.30;;
12966;SDS011;6548;49.996;8.238;2024-03-02T23:58:39;17.67;;;9.70;;
